sensor_id;sensor_type;location;lat;lon;timestamp;P1;durP1;ratioP1;P2;durP2;ratioP2
72728;SDS011;60843;52.062;4.508;2024-01-07T00:01:11;3.90;;;2.00;;
72728;SDS011;60843;52.062;4.508;2024-01-07T00:03:38;2.05;;;1.25;;
72728;SDS011;60843;52.062;4.508;2024-01-07T00:06:05;5.18;;;2.08;;
72728;SDS011;60843;52.062;4.508;2024-01-07T00:08:31;0.90;;;0.73;;
72728;SDS011;60843;52.062;4.508;2024-01-07T00:10:56;4.03;;;2.43;;
72728;SDS011;60843;52.062;4.508;2024-01-07T00:13:21;2.80;;;2.27;;
72728;SDS011;60843;52.062;4.508;2024-01-07T00:15:47;3.53;;;2.47;;
72728;SDS011;60843;52.062;4.508;2024-01-07T00:18:12;3.05;;;1.85;;
72728;SDS011;60843;52.062;4.508;2024-01-07T00:20:38;7.03;;;3.87;;
72728;SDS011;60843;52.062;4.508;2024-01-07T00:23:03;3.60;;;1.98;;
72728;SDS011;60843;52.062;4.508;2024-01-07T00:25:29;5.47;;;3.10;;
72728;SDS011;60843;52.062;4.508;2024-01-07T00:27:54;5.40;;;2.65;;
72728;SDS011;60843;52.062;4.508;2024-01-07T00:30:20;3.47;;;2.13;;
72728;SDS011;60843;52.062;4.508;2024-01-07T00:32:46;5.22;;;2.90;;
72728;SDS011;60843;52.062;4.508;2024-01-07T00:35:11;2.30;;;1.40;;
72728;SDS011;60843;52.062;4.508;2024-01-07T00:37:37;10.35;;;3.00;;
72728;SDS011;60843;52.062;4.508;2024-01-07T00:40:03;5.10;;;2.63;;
72728;SDS011;60843;52.062;4.508;2024-01-07T00:42:29;3.70;;;2.47;;
72728;SDS011;60843;52.062;4.508;2024-01-07T00:44:55;4.72;;;3.03;;
72728;SDS011;60843;52.062;4.508;2024-01-07T00:47:20;4.47;;;2.30;;
72728;SDS011;60843;52.062;4.508;2024-01-07T00:49:45;1.97;;;1.17;;
72728;SDS011;60843;52.062;4.508;2024-01-07T00:52:10;4.73;;;2.90;;
72728;SDS011;60843;52.062;4.508;2024-01-07T00:54:36;4.57;;;2.17;;
72728;SDS011;60843;52.062;4.508;2024-01-07T00:57:01;5.30;;;2.63;;
72728;SDS011;60843;52.062;4.508;2024-01-07T00:59:28;4.00;;;2.20;;
72728;SDS011;60843;52.062;4.508;2024-01-07T01:01:56;4.95;;;2.65;;
72728;SDS011;60843;52.062;4.508;2024-01-07T01:04:22;1.50;;;1.27;;
72728;SDS011;60843;52.062;4.508;2024-01-07T01:06:47;7.20;;;3.97;;
72728;SDS011;60843;52.062;4.508;2024-01-07T01:09:12;5.30;;;2.97;;
72728;SDS011;60843;52.062;4.508;2024-01-07T01:11:38;5.88;;;3.15;;
72728;SDS011;60843;52.062;4.508;2024-01-07T01:14:03;6.63;;;3.28;;
72728;SDS011;60843;52.062;4.508;2024-01-07T01:16:29;5.93;;;3.57;;
72728;SDS011;60843;52.062;4.508;2024-01-07T01:18:54;2.70;;;2.08;;
72728;SDS011;60843;52.062;4.508;2024-01-07T01:21:20;6.32;;;3.22;;
72728;SDS011;60843;52.062;4.508;2024-01-07T01:23:46;3.92;;;2.28;;
72728;SDS011;60843;52.062;4.508;2024-01-07T01:26:12;2.75;;;2.25;;
72728;SDS011;60843;52.062;4.508;2024-01-07T01:28:37;3.90;;;2.20;;
72728;SDS011;60843;52.062;4.508;2024-01-07T01:31:02;3.03;;;1.87;;
72728;SDS011;60843;52.062;4.508;2024-01-07T01:33:28;2.42;;;1.75;;
72728;SDS011;60843;52.062;4.508;2024-01-07T01:35:54;3.05;;;1.95;;
72728;SDS011;60843;52.062;4.508;2024-01-07T01:38:19;5.72;;;2.72;;
72728;SDS011;60843;52.062;4.508;2024-01-07T01:40:50;4.13;;;2.27;;
72728;SDS011;60843;52.062;4.508;2024-01-07T01:43:25;6.35;;;2.90;;
72728;SDS011;60843;52.062;4.508;2024-01-07T01:45:55;3.67;;;2.30;;
72728;SDS011;60843;52.062;4.508;2024-01-07T01:48:25;3.05;;;1.95;;
72728;SDS011;60843;52.062;4.508;2024-01-07T01:50:52;4.82;;;2.60;;
72728;SDS011;60843;52.062;4.508;2024-01-07T01:53:18;5.20;;;3.08;;
72728;SDS011;60843;52.062;4.508;2024-01-07T01:55:44;6.10;;;3.50;;
72728;SDS011;60843;52.062;4.508;2024-01-07T01:58:10;7.30;;;4.22;;
72728;SDS011;60843;52.062;4.508;2024-01-07T02:00:38;6.90;;;3.95;;
72728;SDS011;60843;52.062;4.508;2024-01-07T02:03:03;3.53;;;2.42;;
72728;SDS011;60843;52.062;4.508;2024-01-07T02:05:29;4.90;;;2.60;;
72728;SDS011;60843;52.062;4.508;2024-01-07T02:07:55;6.65;;;3.85;;
72728;SDS011;60843;52.062;4.508;2024-01-07T02:10:21;3.60;;;2.45;;
72728;SDS011;60843;52.062;4.508;2024-01-07T02:12:47;6.20;;;3.15;;
72728;SDS011;60843;52.062;4.508;2024-01-07T02:15:13;4.28;;;1.95;;
72728;SDS011;60843;52.062;4.508;2024-01-07T02:17:39;6.07;;;2.50;;
72728;SDS011;60843;52.062;4.508;2024-01-07T02:20:04;6.10;;;3.10;;
72728;SDS011;60843;52.062;4.508;2024-01-07T02:22:30;5.35;;;3.00;;
72728;SDS011;60843;52.062;4.508;2024-01-07T02:24:55;9.37;;;3.30;;
72728;SDS011;60843;52.062;4.508;2024-01-07T02:27:21;5.73;;;2.93;;
72728;SDS011;60843;52.062;4.508;2024-01-07T02:29:46;5.28;;;2.65;;
72728;SDS011;60843;52.062;4.508;2024-01-07T02:32:11;4.33;;;2.63;;
72728;SDS011;60843;52.062;4.508;2024-01-07T02:34:37;6.13;;;2.15;;
72728;SDS011;60843;52.062;4.508;2024-01-07T02:37:02;7.38;;;4.25;;
72728;SDS011;60843;52.062;4.508;2024-01-07T02:39:28;5.13;;;2.15;;
72728;SDS011;60843;52.062;4.508;2024-01-07T02:41:53;5.90;;;3.10;;
72728;SDS011;60843;52.062;4.508;2024-01-07T02:44:18;4.40;;;2.57;;
72728;SDS011;60843;52.062;4.508;2024-01-07T02:46:44;6.20;;;3.53;;
72728;SDS011;60843;52.062;4.508;2024-01-07T02:49:11;2.83;;;1.65;;
72728;SDS011;60843;52.062;4.508;2024-01-07T02:51:37;3.47;;;2.70;;
72728;SDS011;60843;52.062;4.508;2024-01-07T02:54:02;4.10;;;2.20;;
72728;SDS011;60843;52.062;4.508;2024-01-07T02:56:28;9.55;;;3.38;;
72728;SDS011;60843;52.062;4.508;2024-01-07T02:58:53;5.32;;;1.73;;
72728;SDS011;60843;52.062;4.508;2024-01-07T03:01:21;3.05;;;2.15;;
72728;SDS011;60843;52.062;4.508;2024-01-07T03:06:12;4.73;;;2.20;;
72728;SDS011;60843;52.062;4.508;2024-01-07T03:08:38;3.63;;;1.97;;
72728;SDS011;60843;52.062;4.508;2024-01-07T03:11:06;2.87;;;1.63;;
72728;SDS011;60843;52.062;4.508;2024-01-07T03:13:32;4.07;;;2.35;;
72728;SDS011;60843;52.062;4.508;2024-01-07T03:15:58;4.85;;;3.03;;
72728;SDS011;60843;52.062;4.508;2024-01-07T03:18:23;7.33;;;4.00;;
72728;SDS011;60843;52.062;4.508;2024-01-07T03:20:49;4.30;;;2.87;;
72728;SDS011;60843;52.062;4.508;2024-01-07T03:23:14;6.20;;;3.47;;
72728;SDS011;60843;52.062;4.508;2024-01-07T03:25:39;6.25;;;3.58;;
72728;SDS011;60843;52.062;4.508;2024-01-07T03:28:05;8.63;;;4.20;;
72728;SDS011;60843;52.062;4.508;2024-01-07T03:30:30;8.95;;;4.13;;
72728;SDS011;60843;52.062;4.508;2024-01-07T03:32:56;6.70;;;3.47;;
72728;SDS011;60843;52.062;4.508;2024-01-07T03:35:21;8.30;;;4.20;;
72728;SDS011;60843;52.062;4.508;2024-01-07T03:37:49;7.40;;;3.58;;
72728;SDS011;60843;52.062;4.508;2024-01-07T03:40:14;8.88;;;4.38;;
72728;SDS011;60843;52.062;4.508;2024-01-07T03:42:40;6.60;;;3.67;;
72728;SDS011;60843;52.062;4.508;2024-01-07T03:45:06;8.10;;;3.78;;
72728;SDS011;60843;52.062;4.508;2024-01-07T03:47:31;8.60;;;4.43;;
72728;SDS011;60843;52.062;4.508;2024-01-07T03:49:57;11.65;;;4.43;;
72728;SDS011;60843;52.062;4.508;2024-01-07T03:52:22;9.40;;;4.28;;
72728;SDS011;60843;52.062;4.508;2024-01-07T03:54:48;8.13;;;3.70;;
72728;SDS011;60843;52.062;4.508;2024-01-07T03:57:13;7.50;;;3.92;;
72728;SDS011;60843;52.062;4.508;2024-01-07T03:59:38;9.77;;;4.43;;
72728;SDS011;60843;52.062;4.508;2024-01-07T04:02:04;8.87;;;4.37;;
72728;SDS011;60843;52.062;4.508;2024-01-07T04:04:29;9.10;;;4.18;;
72728;SDS011;60843;52.062;4.508;2024-01-07T04:06:55;8.68;;;4.13;;
72728;SDS011;60843;52.062;4.508;2024-01-07T04:09:20;8.15;;;3.92;;
72728;SDS011;60843;52.062;4.508;2024-01-07T04:11:45;9.18;;;4.40;;
72728;SDS011;60843;52.062;4.508;2024-01-07T04:14:13;7.70;;;4.20;;
72728;SDS011;60843;52.062;4.508;2024-01-07T04:16:39;8.27;;;4.43;;
72728;SDS011;60843;52.062;4.508;2024-01-07T04:19:04;10.33;;;5.33;;
72728;SDS011;60843;52.062;4.508;2024-01-07T04:21:30;5.57;;;3.30;;
72728;SDS011;60843;52.062;4.508;2024-01-07T04:23:55;11.90;;;4.27;;
72728;SDS011;60843;52.062;4.508;2024-01-07T04:26:20;9.73;;;4.82;;
72728;SDS011;60843;52.062;4.508;2024-01-07T04:28:46;7.27;;;3.87;;
72728;SDS011;60843;52.062;4.508;2024-01-07T04:31:11;8.75;;;4.13;;
72728;SDS011;60843;52.062;4.508;2024-01-07T04:33:37;7.93;;;3.93;;
72728;SDS011;60843;52.062;4.508;2024-01-07T04:36:02;8.07;;;4.25;;
72728;SDS011;60843;52.062;4.508;2024-01-07T04:38:29;9.13;;;4.35;;
72728;SDS011;60843;52.062;4.508;2024-01-07T04:40:54;8.00;;;4.25;;
72728;SDS011;60843;52.062;4.508;2024-01-07T04:43:20;7.93;;;3.77;;
72728;SDS011;60843;52.062;4.508;2024-01-07T04:45:45;9.50;;;4.18;;
72728;SDS011;60843;52.062;4.508;2024-01-07T04:48:11;8.63;;;4.55;;
72728;SDS011;60843;52.062;4.508;2024-01-07T04:50:36;7.03;;;3.78;;
72728;SDS011;60843;52.062;4.508;2024-01-07T04:53:02;7.93;;;3.90;;
72728;SDS011;60843;52.062;4.508;2024-01-07T04:55:27;5.80;;;3.50;;
72728;SDS011;60843;52.062;4.508;2024-01-07T04:57:54;4.93;;;2.80;;
72728;SDS011;60843;52.062;4.508;2024-01-07T05:00:20;5.90;;;3.20;;
72728;SDS011;60843;52.062;4.508;2024-01-07T05:02:45;6.72;;;3.63;;
72728;SDS011;60843;52.062;4.508;2024-01-07T05:05:11;6.90;;;3.30;;
72728;SDS011;60843;52.062;4.508;2024-01-07T05:07:37;8.57;;;3.97;;
72728;SDS011;60843;52.062;4.508;2024-01-07T05:10:02;7.50;;;4.03;;
72728;SDS011;60843;52.062;4.508;2024-01-07T05:12:28;5.10;;;2.47;;
72728;SDS011;60843;52.062;4.508;2024-01-07T05:14:54;6.45;;;3.35;;
72728;SDS011;60843;52.062;4.508;2024-01-07T05:17:19;7.27;;;3.87;;
72728;SDS011;60843;52.062;4.508;2024-01-07T05:19:45;5.00;;;2.63;;
72728;SDS011;60843;52.062;4.508;2024-01-07T05:22:10;4.20;;;2.53;;
72728;SDS011;60843;52.062;4.508;2024-01-07T05:24:39;3.97;;;2.33;;
72728;SDS011;60843;52.062;4.508;2024-01-07T05:27:04;5.55;;;2.55;;
72728;SDS011;60843;52.062;4.508;2024-01-07T05:29:30;4.88;;;2.33;;
72728;SDS011;60843;52.062;4.508;2024-01-07T05:31:58;6.40;;;3.45;;
72728;SDS011;60843;52.062;4.508;2024-01-07T05:34:25;4.28;;;1.98;;
72728;SDS011;60843;52.062;4.508;2024-01-07T05:36:53;7.97;;;3.90;;
72728;SDS011;60843;52.062;4.508;2024-01-07T05:39:19;8.10;;;4.10;;
72728;SDS011;60843;52.062;4.508;2024-01-07T05:41:44;7.85;;;4.00;;
72728;SDS011;60843;52.062;4.508;2024-01-07T05:44:10;8.48;;;3.70;;
72728;SDS011;60843;52.062;4.508;2024-01-07T05:46:39;7.85;;;3.75;;
72728;SDS011;60843;52.062;4.508;2024-01-07T05:49:05;8.20;;;4.68;;
72728;SDS011;60843;52.062;4.508;2024-01-07T05:51:30;2.92;;;1.35;;
72728;SDS011;60843;52.062;4.508;2024-01-07T05:53:56;9.98;;;5.00;;
72728;SDS011;60843;52.062;4.508;2024-01-07T05:56:21;9.07;;;4.33;;
72728;SDS011;60843;52.062;4.508;2024-01-07T05:58:47;3.50;;;1.85;;
72728;SDS011;60843;52.062;4.508;2024-01-07T06:01:17;11.80;;;4.57;;
72728;SDS011;60843;52.062;4.508;2024-01-07T06:03:46;9.52;;;4.05;;
72728;SDS011;60843;52.062;4.508;2024-01-07T06:06:14;4.30;;;2.80;;
72728;SDS011;60843;52.062;4.508;2024-01-07T06:08:43;9.75;;;4.82;;
72728;SDS011;60843;52.062;4.508;2024-01-07T06:11:09;7.65;;;3.55;;
72728;SDS011;60843;52.062;4.508;2024-01-07T06:13:35;9.07;;;3.90;;
72728;SDS011;60843;52.062;4.508;2024-01-07T06:16:01;9.93;;;4.57;;
72728;SDS011;60843;52.062;4.508;2024-01-07T06:18:26;6.33;;;3.97;;
72728;SDS011;60843;52.062;4.508;2024-01-07T06:20:51;9.00;;;4.67;;
72728;SDS011;60843;52.062;4.508;2024-01-07T06:23:17;9.73;;;4.63;;
72728;SDS011;60843;52.062;4.508;2024-01-07T06:25:43;7.00;;;4.20;;
72728;SDS011;60843;52.062;4.508;2024-01-07T06:28:08;6.22;;;3.30;;
72728;SDS011;60843;52.062;4.508;2024-01-07T06:30:35;11.90;;;4.97;;
72728;SDS011;60843;52.062;4.508;2024-01-07T06:33:00;8.82;;;4.45;;
72728;SDS011;60843;52.062;4.508;2024-01-07T06:35:26;8.07;;;2.72;;
72728;SDS011;60843;52.062;4.508;2024-01-07T06:37:51;9.43;;;5.05;;
72728;SDS011;60843;52.062;4.508;2024-01-07T06:40:20;6.85;;;2.60;;
72728;SDS011;60843;52.062;4.508;2024-01-07T06:42:45;9.90;;;5.00;;
72728;SDS011;60843;52.062;4.508;2024-01-07T06:45:12;9.82;;;4.93;;
72728;SDS011;60843;52.062;4.508;2024-01-07T06:47:38;7.72;;;4.03;;
72728;SDS011;60843;52.062;4.508;2024-01-07T06:50:03;5.27;;;3.50;;
72728;SDS011;60843;52.062;4.508;2024-01-07T06:52:29;10.05;;;5.05;;
72728;SDS011;60843;52.062;4.508;2024-01-07T06:54:54;11.27;;;4.95;;
72728;SDS011;60843;52.062;4.508;2024-01-07T06:57:20;10.80;;;3.60;;
72728;SDS011;60843;52.062;4.508;2024-01-07T06:59:45;11.03;;;4.40;;
72728;SDS011;60843;52.062;4.508;2024-01-07T07:02:11;9.15;;;4.97;;
72728;SDS011;60843;52.062;4.508;2024-01-07T07:04:37;11.52;;;4.95;;
72728;SDS011;60843;52.062;4.508;2024-01-07T07:07:02;4.25;;;2.20;;
72728;SDS011;60843;52.062;4.508;2024-01-07T07:09:28;8.20;;;4.25;;
72728;SDS011;60843;52.062;4.508;2024-01-07T07:11:53;10.40;;;4.80;;
72728;SDS011;60843;52.062;4.508;2024-01-07T07:14:19;8.80;;;4.93;;
72728;SDS011;60843;52.062;4.508;2024-01-07T07:16:44;7.55;;;3.95;;
72728;SDS011;60843;52.062;4.508;2024-01-07T07:19:09;11.03;;;5.07;;
72728;SDS011;60843;52.062;4.508;2024-01-07T07:21:39;7.05;;;4.07;;
72728;SDS011;60843;52.062;4.508;2024-01-07T07:24:05;4.43;;;2.75;;
72728;SDS011;60843;52.062;4.508;2024-01-07T07:26:31;9.50;;;5.05;;
72728;SDS011;60843;52.062;4.508;2024-01-07T07:28:56;10.40;;;4.28;;
72728;SDS011;60843;52.062;4.508;2024-01-07T07:31:22;10.80;;;4.22;;
72728;SDS011;60843;52.062;4.508;2024-01-07T07:33:47;8.25;;;4.40;;
72728;SDS011;60843;52.062;4.508;2024-01-07T07:36:14;7.72;;;3.50;;
72728;SDS011;60843;52.062;4.508;2024-01-07T07:38:40;4.68;;;2.72;;
72728;SDS011;60843;52.062;4.508;2024-01-07T07:41:05;7.25;;;3.10;;
72728;SDS011;60843;52.062;4.508;2024-01-07T07:43:31;9.68;;;4.93;;
72728;SDS011;60843;52.062;4.508;2024-01-07T07:45:56;5.00;;;2.75;;
72728;SDS011;60843;52.062;4.508;2024-01-07T07:48:22;3.85;;;2.30;;
72728;SDS011;60843;52.062;4.508;2024-01-07T07:50:49;4.70;;;2.88;;
72728;SDS011;60843;52.062;4.508;2024-01-07T07:53:14;7.97;;;3.97;;
72728;SDS011;60843;52.062;4.508;2024-01-07T07:55:40;7.53;;;3.70;;
72728;SDS011;60843;52.062;4.508;2024-01-07T07:58:05;3.83;;;2.03;;
72728;SDS011;60843;52.062;4.508;2024-01-07T08:00:30;8.73;;;3.80;;
72728;SDS011;60843;52.062;4.508;2024-01-07T08:02:56;6.53;;;2.80;;
72728;SDS011;60843;52.062;4.508;2024-01-07T08:05:21;9.73;;;3.70;;
72728;SDS011;60843;52.062;4.508;2024-01-07T08:07:47;5.33;;;3.07;;
72728;SDS011;60843;52.062;4.508;2024-01-07T08:10:12;8.60;;;4.13;;
72728;SDS011;60843;52.062;4.508;2024-01-07T08:12:37;9.07;;;4.40;;
72728;SDS011;60843;52.062;4.508;2024-01-07T08:15:03;7.57;;;3.90;;
72728;SDS011;60843;52.062;4.508;2024-01-07T08:17:30;13.43;;;3.97;;
72728;SDS011;60843;52.062;4.508;2024-01-07T08:19:55;7.88;;;3.83;;
72728;SDS011;60843;52.062;4.508;2024-01-07T08:22:21;7.85;;;4.38;;
72728;SDS011;60843;52.062;4.508;2024-01-07T08:24:46;4.97;;;2.87;;
72728;SDS011;60843;52.062;4.508;2024-01-07T08:27:11;5.82;;;3.03;;
72728;SDS011;60843;52.062;4.508;2024-01-07T08:29:37;7.70;;;3.83;;
72728;SDS011;60843;52.062;4.508;2024-01-07T08:32:02;4.43;;;2.55;;
72728;SDS011;60843;52.062;4.508;2024-01-07T08:34:28;6.82;;;3.15;;
72728;SDS011;60843;52.062;4.508;2024-01-07T08:36:53;7.20;;;3.83;;
72728;SDS011;60843;52.062;4.508;2024-01-07T08:39:21;5.63;;;3.38;;
72728;SDS011;60843;52.062;4.508;2024-01-07T08:41:46;4.22;;;2.00;;
72728;SDS011;60843;52.062;4.508;2024-01-07T08:44:12;4.35;;;2.58;;
72728;SDS011;60843;52.062;4.508;2024-01-07T08:46:37;6.28;;;3.75;;
72728;SDS011;60843;52.062;4.508;2024-01-07T08:49:03;3.67;;;2.30;;
72728;SDS011;60843;52.062;4.508;2024-01-07T08:51:28;5.13;;;2.65;;
72728;SDS011;60843;52.062;4.508;2024-01-07T08:53:57;6.43;;;3.60;;
72728;SDS011;60843;52.062;4.508;2024-01-07T08:56:23;4.85;;;2.85;;
72728;SDS011;60843;52.062;4.508;2024-01-07T08:58:48;8.30;;;4.45;;
72728;SDS011;60843;52.062;4.508;2024-01-07T09:01:14;3.35;;;2.03;;
72728;SDS011;60843;52.062;4.508;2024-01-07T09:03:39;4.03;;;2.53;;
72728;SDS011;60843;52.062;4.508;2024-01-07T09:06:06;2.85;;;1.77;;
72728;SDS011;60843;52.062;4.508;2024-01-07T09:08:32;4.03;;;2.70;;
72728;SDS011;60843;52.062;4.508;2024-01-07T09:10:59;6.32;;;3.35;;
72728;SDS011;60843;52.062;4.508;2024-01-07T09:13:25;6.70;;;3.83;;
72728;SDS011;60843;52.062;4.508;2024-01-07T09:15:59;5.75;;;2.80;;
72728;SDS011;60843;52.062;4.508;2024-01-07T09:18:25;4.23;;;2.47;;
72728;SDS011;60843;52.062;4.508;2024-01-07T09:20:50;4.20;;;3.00;;
72728;SDS011;60843;52.062;4.508;2024-01-07T09:23:15;6.63;;;3.13;;
72728;SDS011;60843;52.062;4.508;2024-01-07T09:25:41;1.55;;;1.30;;
72728;SDS011;60843;52.062;4.508;2024-01-07T09:28:07;4.88;;;2.75;;
72728;SDS011;60843;52.062;4.508;2024-01-07T09:30:32;4.78;;;2.63;;
72728;SDS011;60843;52.062;4.508;2024-01-07T09:32:58;3.17;;;1.90;;
72728;SDS011;60843;52.062;4.508;2024-01-07T09:35:23;5.00;;;3.20;;
72728;SDS011;60843;52.062;4.508;2024-01-07T09:37:48;7.70;;;3.28;;
72728;SDS011;60843;52.062;4.508;2024-01-07T09:40:17;3.37;;;1.83;;
72728;SDS011;60843;52.062;4.508;2024-01-07T09:42:46;6.50;;;2.10;;
72728;SDS011;60843;52.062;4.508;2024-01-07T09:45:12;7.55;;;2.88;;
72728;SDS011;60843;52.062;4.508;2024-01-07T09:47:39;6.80;;;2.50;;
72728;SDS011;60843;52.062;4.508;2024-01-07T09:50:05;3.10;;;1.67;;
72728;SDS011;60843;52.062;4.508;2024-01-07T09:52:32;4.65;;;2.28;;
72728;SDS011;60843;52.062;4.508;2024-01-07T09:54:58;4.32;;;2.25;;
72728;SDS011;60843;52.062;4.508;2024-01-07T09:57:25;7.63;;;3.28;;
72728;SDS011;60843;52.062;4.508;2024-01-07T09:59:51;4.47;;;2.75;;
72728;SDS011;60843;52.062;4.508;2024-01-07T10:02:17;4.03;;;2.13;;
72728;SDS011;60843;52.062;4.508;2024-01-07T10:04:43;3.53;;;2.10;;
72728;SDS011;60843;52.062;4.508;2024-01-07T10:07:10;5.00;;;2.40;;
72728;SDS011;60843;52.062;4.508;2024-01-07T10:09:35;5.13;;;2.80;;
72728;SDS011;60843;52.062;4.508;2024-01-07T10:12:01;4.50;;;2.10;;
72728;SDS011;60843;52.062;4.508;2024-01-07T10:14:27;4.32;;;2.20;;
72728;SDS011;60843;52.062;4.508;2024-01-07T10:16:52;6.67;;;2.67;;
72728;SDS011;60843;52.062;4.508;2024-01-07T10:19:21;4.18;;;2.55;;
72728;SDS011;60843;52.062;4.508;2024-01-07T10:22:00;3.63;;;1.52;;
72728;SDS011;60843;52.062;4.508;2024-01-07T10:24:39;4.05;;;2.30;;
72728;SDS011;60843;52.062;4.508;2024-01-07T10:27:05;4.97;;;2.17;;
72728;SDS011;60843;52.062;4.508;2024-01-07T10:29:32;5.00;;;2.28;;
72728;SDS011;60843;52.062;4.508;2024-01-07T10:31:58;2.75;;;1.77;;
72728;SDS011;60843;52.062;4.508;2024-01-07T10:34:24;4.60;;;2.55;;
72728;SDS011;60843;52.062;4.508;2024-01-07T10:36:53;6.13;;;2.95;;
72728;SDS011;60843;52.062;4.508;2024-01-07T10:39:21;5.47;;;2.28;;
72728;SDS011;60843;52.062;4.508;2024-01-07T10:41:46;4.80;;;2.28;;
72728;SDS011;60843;52.062;4.508;2024-01-07T10:44:12;4.03;;;1.90;;
72728;SDS011;60843;52.062;4.508;2024-01-07T10:46:38;4.43;;;1.48;;
72728;SDS011;60843;52.062;4.508;2024-01-07T10:49:04;4.10;;;2.35;;
72728;SDS011;60843;52.062;4.508;2024-01-07T10:51:33;3.88;;;1.90;;
72728;SDS011;60843;52.062;4.508;2024-01-07T10:53:59;1.95;;;0.77;;
72728;SDS011;60843;52.062;4.508;2024-01-07T10:56:28;3.30;;;1.02;;
72728;SDS011;60843;52.062;4.508;2024-01-07T10:58:58;7.25;;;2.20;;
72728;SDS011;60843;52.062;4.508;2024-01-07T11:01:24;2.15;;;1.35;;
72728;SDS011;60843;52.062;4.508;2024-01-07T11:03:56;7.63;;;2.10;;
72728;SDS011;60843;52.062;4.508;2024-01-07T11:06:28;5.32;;;2.28;;
72728;SDS011;60843;52.062;4.508;2024-01-07T11:09:14;3.35;;;1.88;;
72728;SDS011;60843;52.062;4.508;2024-01-07T11:11:40;3.72;;;2.17;;
72728;SDS011;60843;52.062;4.508;2024-01-07T11:17:12;2.15;;;1.60;;
72728;SDS011;60843;52.062;4.508;2024-01-07T11:19:50;3.78;;;1.70;;
72728;SDS011;60843;52.062;4.508;2024-01-07T11:22:25;3.05;;;1.77;;
72728;SDS011;60843;52.062;4.508;2024-01-07T11:24:56;2.85;;;1.60;;
72728;SDS011;60843;52.062;4.508;2024-01-07T11:27:23;2.20;;;1.58;;
72728;SDS011;60843;52.062;4.508;2024-01-07T11:29:53;3.75;;;2.03;;
72728;SDS011;60843;52.062;4.508;2024-01-07T11:32:24;2.20;;;1.30;;
72728;SDS011;60843;52.062;4.508;2024-01-07T11:34:54;2.05;;;1.10;;
72728;SDS011;60843;52.062;4.508;2024-01-07T11:37:21;2.33;;;1.35;;
72728;SDS011;60843;52.062;4.508;2024-01-07T11:39:47;3.63;;;1.83;;
72728;SDS011;60843;52.062;4.508;2024-01-07T11:42:13;3.30;;;1.50;;
72728;SDS011;60843;52.062;4.508;2024-01-07T11:44:51;4.75;;;2.60;;
72728;SDS011;60843;52.062;4.508;2024-01-07T11:47:20;2.78;;;1.77;;
72728;SDS011;60843;52.062;4.508;2024-01-07T11:49:47;2.35;;;0.88;;
72728;SDS011;60843;52.062;4.508;2024-01-07T11:52:14;1.25;;;1.00;;
72728;SDS011;60843;52.062;4.508;2024-01-07T11:54:40;2.28;;;0.93;;
72728;SDS011;60843;52.062;4.508;2024-01-07T11:57:06;2.88;;;1.73;;
72728;SDS011;60843;52.062;4.508;2024-01-07T11:59:32;2.88;;;1.10;;
72728;SDS011;60843;52.062;4.508;2024-01-07T12:02:02;3.78;;;1.13;;
72728;SDS011;60843;52.062;4.508;2024-01-07T12:04:29;2.13;;;1.10;;
72728;SDS011;60843;52.062;4.508;2024-01-07T12:06:55;3.20;;;1.20;;
72728;SDS011;60843;52.062;4.508;2024-01-07T12:09:21;7.50;;;2.00;;
72728;SDS011;60843;52.062;4.508;2024-01-07T12:11:46;2.58;;;1.10;;
72728;SDS011;60843;52.062;4.508;2024-01-07T12:14:11;1.50;;;1.02;;
72728;SDS011;60843;52.062;4.508;2024-01-07T12:16:37;1.55;;;0.93;;
72728;SDS011;60843;52.062;4.508;2024-01-07T12:19:03;1.67;;;1.20;;
72728;SDS011;60843;52.062;4.508;2024-01-07T12:21:28;3.92;;;1.73;;
72728;SDS011;60843;52.062;4.508;2024-01-07T12:23:54;2.38;;;1.25;;
72728;SDS011;60843;52.062;4.508;2024-01-07T12:26:25;3.28;;;1.20;;
72728;SDS011;60843;52.062;4.508;2024-01-07T12:28:54;2.78;;;1.67;;
72728;SDS011;60843;52.062;4.508;2024-01-07T12:31:21;2.97;;;1.55;;
72728;SDS011;60843;52.062;4.508;2024-01-07T12:33:46;4.53;;;2.25;;
72728;SDS011;60843;52.062;4.508;2024-01-07T12:36:12;2.20;;;0.93;;
72728;SDS011;60843;52.062;4.508;2024-01-07T12:38:37;3.58;;;1.95;;
72728;SDS011;60843;52.062;4.508;2024-01-07T12:41:03;1.80;;;1.38;;
72728;SDS011;60843;52.062;4.508;2024-01-07T12:43:29;1.67;;;0.95;;
72728;SDS011;60843;52.062;4.508;2024-01-07T12:45:54;3.40;;;1.63;;
72728;SDS011;60843;52.062;4.508;2024-01-07T12:48:21;1.83;;;1.02;;
72728;SDS011;60843;52.062;4.508;2024-01-07T12:50:47;1.40;;;0.70;;
72728;SDS011;60843;52.062;4.508;2024-01-07T12:53:12;2.87;;;1.27;;
72728;SDS011;60843;52.062;4.508;2024-01-07T12:55:38;1.05;;;0.70;;
72728;SDS011;60843;52.062;4.508;2024-01-07T12:58:03;4.43;;;1.33;;
72728;SDS011;60843;52.062;4.508;2024-01-07T13:00:28;0.83;;;0.53;;
72728;SDS011;60843;52.062;4.508;2024-01-07T13:02:54;0.88;;;0.60;;
72728;SDS011;60843;52.062;4.508;2024-01-07T13:05:21;0.80;;;0.55;;
72728;SDS011;60843;52.062;4.508;2024-01-07T13:07:47;1.27;;;0.80;;
72728;SDS011;60843;52.062;4.508;2024-01-07T13:10:12;0.50;;;0.40;;
72728;SDS011;60843;52.062;4.508;2024-01-07T13:12:38;2.08;;;1.17;;
72728;SDS011;60843;52.062;4.508;2024-01-07T13:15:04;3.30;;;0.82;;
72728;SDS011;60843;52.062;4.508;2024-01-07T13:17:30;1.40;;;1.00;;
72728;SDS011;60843;52.062;4.508;2024-01-07T13:19:57;1.70;;;0.65;;
72728;SDS011;60843;52.062;4.508;2024-01-07T13:22:23;1.00;;;0.50;;
72728;SDS011;60843;52.062;4.508;2024-01-07T13:24:49;1.38;;;0.80;;
72728;SDS011;60843;52.062;4.508;2024-01-07T13:27:15;0.82;;;0.47;;
72728;SDS011;60843;52.062;4.508;2024-01-07T13:29:43;2.10;;;0.55;;
72728;SDS011;60843;52.062;4.508;2024-01-07T13:32:10;2.08;;;0.55;;
72728;SDS011;60843;52.062;4.508;2024-01-07T13:34:36;3.22;;;1.00;;
72728;SDS011;60843;52.062;4.508;2024-01-07T13:37:01;6.72;;;0.95;;
72728;SDS011;60843;52.062;4.508;2024-01-07T13:39:28;2.05;;;1.10;;
72728;SDS011;60843;52.062;4.508;2024-01-07T13:41:54;1.23;;;0.63;;
72728;SDS011;60843;52.062;4.508;2024-01-07T13:44:20;1.07;;;0.60;;
72728;SDS011;60843;52.062;4.508;2024-01-07T13:46:45;1.55;;;0.63;;
72728;SDS011;60843;52.062;4.508;2024-01-07T13:49:12;1.60;;;1.02;;
72728;SDS011;60843;52.062;4.508;2024-01-07T13:51:38;1.63;;;1.08;;
72728;SDS011;60843;52.062;4.508;2024-01-07T13:54:03;0.30;;;0.15;;
72728;SDS011;60843;52.062;4.508;2024-01-07T13:56:29;3.35;;;0.50;;
72728;SDS011;60843;52.062;4.508;2024-01-07T13:58:54;1.48;;;0.60;;
72728;SDS011;60843;52.062;4.508;2024-01-07T14:01:21;2.28;;;0.65;;
72728;SDS011;60843;52.062;4.508;2024-01-07T14:03:46;4.03;;;0.68;;
72728;SDS011;60843;52.062;4.508;2024-01-07T14:06:12;0.80;;;0.65;;
72728;SDS011;60843;52.062;4.508;2024-01-07T14:08:37;1.10;;;0.73;;
72728;SDS011;60843;52.062;4.508;2024-01-07T14:11:03;0.65;;;0.38;;
72728;SDS011;60843;52.062;4.508;2024-01-07T14:13:28;1.40;;;0.77;;
72728;SDS011;60843;52.062;4.508;2024-01-07T14:15:54;2.00;;;0.87;;
72728;SDS011;60843;52.062;4.508;2024-01-07T14:18:20;1.20;;;0.68;;
72728;SDS011;60843;52.062;4.508;2024-01-07T14:20:47;0.88;;;0.50;;
72728;SDS011;60843;52.062;4.508;2024-01-07T14:23:13;1.48;;;0.40;;
72728;SDS011;60843;52.062;4.508;2024-01-07T14:25:38;0.85;;;0.80;;
72728;SDS011;60843;52.062;4.508;2024-01-07T14:28:05;0.30;;;0.30;;
72728;SDS011;60843;52.062;4.508;2024-01-07T14:30:31;3.67;;;0.80;;
72728;SDS011;60843;52.062;4.508;2024-01-07T14:32:56;5.32;;;0.68;;
72728;SDS011;60843;52.062;4.508;2024-01-07T14:35:22;1.27;;;0.90;;
72728;SDS011;60843;52.062;4.508;2024-01-07T14:37:49;1.88;;;0.85;;
72728;SDS011;60843;52.062;4.508;2024-01-07T14:40:15;6.00;;;0.73;;
72728;SDS011;60843;52.062;4.508;2024-01-07T14:42:40;5.97;;;0.80;;
72728;SDS011;60843;52.062;4.508;2024-01-07T14:45:06;1.20;;;0.63;;
72728;SDS011;60843;52.062;4.508;2024-01-07T14:47:31;0.38;;;0.35;;